Time;durP1;ratioP1;P1;durP2;ratioP2;P2;SDS_P1;SDS_P2;PMS_P1;PMS_P2;Temp;Humidity;BMP_temperature;BMP_pressure;BME280_temperature;BME280_humidity;BME280_pressure;Samples;Min_cycle;Max_cycle;Signal;HPM_P1;HPM_P2
2022/01/21 00:00:24;;;;;;;13.23;2.85;;;;;;;;;;5114789;28;20283;-66
2022/01/21 00:02:53;;;;;;;2.28;2.08;;;;;;;;;;5114489;28;20272;-65
2022/01/21 00:05:21;;;;;;;14.77;3.00;;;;;;;;;;5115086;28;20216;-65
2022/01/21 00:07:48;;;;;;;9.73;3.17;;;;;;;;;;5114950;28;20292;-66
2022/01/21 00:10:15;;;;;;;9.20;3.08;;;;;;;;;;5114690;28;20222;-65
2022/01/21 00:12:42;;;;;;;12.00;2.38;;;;;;;;;;5114567;28;20226;-66
2022/01/21 00:15:11;;;;;;;9.07;2.78;;;;;;;;;;5115247;28;20220;-66
2022/01/21 00:17:38;;;;;;;5.95;2.20;;;;;;;;;;5114962;28;20194;-65
2022/01/21 00:31:06;;;;;;;4.45;2.70;;;;;;;;;;5114236;28;20200;-65
2022/01/21 00:33:33;;;;;;;12.27;3.15;;;;;;;;;;5114401;28;20680;-66
2022/01/21 00:36:02;;;;;;;7.78;2.65;;;;;;;;;;5113933;28;20228;-65
2022/01/21 00:38:31;;;;;;;6.78;2.30;;;;;;;;;;5114585;28;20599;-66
2022/01/21 00:41:01;;;;;;;5.63;2.50;;;;;;;;;;5114294;28;20192;-66
2022/01/21 00:43:31;;;;;;;23.42;3.08;;;;;;;;;;5114523;28;20187;-65
2022/01/21 00:45:59;;;;;;;11.73;4.75;;;;;;;;;;5114569;28;20248;-65
2022/01/21 00:48:26;;;;;;;7.03;3.05;;;;;;;;;;5114066;28;20549;-65
2022/01/21 00:50:54;;;;;;;8.35;2.63;;;;;;;;;;5114071;28;20191;-65
2022/01/21 00:53:22;;;;;;;11.07;3.00;;;;;;;;;;5114516;28;20639;-65
2022/01/21 00:55:50;;;;;;;9.02;4.30;;;;;;;;;;5113925;28;20229;-66
2022/01/21 00:58:17;;;;;;;9.68;2.95;;;;;;;;;;5114035;28;20221;-65
2022/01/21 01:00:44;;;;;;;14.00;2.90;;;;;;;;;;5114028;28;20602;-66
2022/01/21 01:03:13;;;;;;;11.65;3.05;;;;;;;;;;5113812;28;20224;-67
2022/01/21 01:05:40;;;;;;;12.45;2.72;;;;;;;;;;5113488;28;20216;-66
2022/01/21 01:08:08;;;;;;;14.13;3.90;;;;;;;;;;5113793;28;20199;-66
2022/01/21 01:10:48;;;;;;;8.77;3.22;;;;;;;;;;5113838;28;20271;-66
2022/01/21 01:21:29;;;;;;;14.73;3.72;;;;;;;;;;5113697;28;20278;-66
2022/01/21 01:27:36;;;;;;;11.40;3.03;;;;;;;;;;5114094;28;20225;-66
2022/01/21 01:29:40;;;;;;;8.18;3.20;;;;;;;;;;5113292;28;20327;-66
2022/01/21 01:32:07;;;;;;;8.40;2.67;;;;;;;;;;5113303;28;20278;-66
2022/01/21 01:34:35;;;;;;;11.07;3.38;;;;;;;;;;5113541;28;20273;-65
2022/01/21 01:37:08;;;;;;;10.68;3.28;;;;;;;;;;5114038;28;20283;-66
2022/01/21 01:39:41;;;;;;;13.00;3.97;;;;;;;;;;5113465;28;20627;-66
2022/01/21 01:42:52;;;;;;;7.38;2.72;;;;;;;;;;5113441;28;20271;-66
2022/01/21 01:50:36;;;;;;;12.20;2.97;;;;;;;;;;5113316;28;20183;-65
2022/01/21 01:53:03;;;;;;;12.57;3.42;;;;;;;;;;5113585;28;20548;-65
2022/01/21 01:55:31;;;;;;;11.68;3.38;;;;;;;;;;5113428;28;20291;-65
2022/01/21 01:57:59;;;;;;;7.75;2.35;;;;;;;;;;5113161;28;20231;-66
2022/01/21 02:00:26;;;;;;;6.28;3.38;;;;;;;;;;5113291;28;20593;-65
2022/01/21 02:02:54;;;;;;;4.97;2.40;;;;;;;;;;5112653;28;20196;-65
2022/01/21 02:05:21;;;;;;;13.73;3.17;;;;;;;;;;5113548;28;20223;-65
2022/01/21 02:07:48;;;;;;;5.25;2.50;;;;;;;;;;5113863;28;20264;-65
2022/01/21 02:10:15;;;;;;;10.88;2.50;;;;;;;;;;5116544;28;20276;-65
2022/01/21 02:12:43;;;;;;;11.07;2.95;;;;;;;;;;5116800;28;20224;-65
2022/01/21 02:15:12;;;;;;;10.77;3.10;;;;;;;;;;5117283;28;20229;-65
2022/01/21 02:23:10;;;;;;;5.60;3.25;;;;;;;;;;5116551;28;20235;-66
2022/01/21 02:25:37;;;;;;;13.13;3.92;;;;;;;;;;5117183;28;20229;-66
2022/01/21 02:28:05;;;;;;;12.68;4.22;;;;;;;;;;5116583;28;20272;-66
2022/01/21 02:30:32;;;;;;;8.20;3.25;;;;;;;;;;5116528;28;20242;-65
2022/01/21 02:33:00;;;;;;;8.15;2.60;;;;;;;;;;5116038;28;20279;-66
2022/01/21 02:35:28;;;;;;;22.80;4.10;;;;;;;;;;5116378;28;20294;-66
2022/01/21 02:37:55;;;;;;;9.27;2.53;;;;;;;;;;5116110;28;20237;-65
2022/01/21 02:40:24;;;;;;;13.73;3.72;;;;;;;;;;5116108;28;20185;-65
2022/01/21 02:42:51;;;;;;;8.02;3.67;;;;;;;;;;5116381;28;20280;-65
2022/01/21 02:45:18;;;;;;;5.63;2.05;;;;;;;;;;5116651;28;20272;-66
2022/01/21 02:47:46;;;;;;;8.25;2.65;;;;;;;;;;5116261;28;20318;-65
2022/01/21 02:50:15;;;;;;;17.90;3.47;;;;;;;;;;5115893;28;20225;-66
2022/01/21 02:52:54;;;;;;;9.65;3.75;;;;;;;;;;5116264;28;20196;-65
2022/01/21 02:55:22;;;;;;;14.77;3.22;;;;;;;;;;5116721;28;20185;-65
2022/01/21 02:57:50;;;;;;;10.63;2.72;;;;;;;;;;5116658;28;20284;-66
2022/01/21 03:00:21;;;;;;;7.20;2.90;;;;;;;;;;5115900;28;20275;-66
2022/01/21 03:07:50;;;;;;;12.53;3.40;;;;;;;;;;5038891;28;20243;-67
2022/01/21 03:10:17;;;;;;;13.00;3.15;;;;;;;;;;5035110;28;20482;-66
2022/01/21 03:12:44;;;;;;;14.82;3.58;;;;;;;;;;5034798;28;20660;-65
2022/01/21 03:15:13;;;;;;;19.13;3.08;;;;;;;;;;5035477;28;20197;-65
2022/01/21 03:17:40;;;;;;;10.68;2.40;;;;;;;;;;5035332;28;20294;-65
2022/01/21 03:20:08;;;;;;;11.20;3.20;;;;;;;;;;5033480;28;20292;-65
2022/01/21 03:22:36;;;;;;;19.08;4.82;;;;;;;;;;5034490;28;20206;-65
2022/01/21 03:25:04;;;;;;;6.32;3.25;;;;;;;;;;5034455;28;20197;-65
2022/01/21 03:27:31;;;;;;;6.50;2.83;;;;;;;;;;5034690;28;20231;-65
2022/01/21 03:29:59;;;;;;;7.80;2.53;;;;;;;;;;5035015;28;20196;-65
2022/01/21 03:32:28;;;;;;;9.85;3.45;;;;;;;;;;5034396;28;20295;-64
2022/01/21 03:34:55;;;;;;;11.65;3.50;;;;;;;;;;5034683;28;20626;-64
2022/01/21 03:37:22;;;;;;;20.15;3.50;;;;;;;;;;5034607;28;20202;-64
2022/01/21 03:39:50;;;;;;;9.85;2.65;;;;;;;;;;5034216;28;20192;-64
2022/01/21 03:42:17;;;;;;;14.32;4.05;;;;;;;;;;5034403;28;20227;-65
2022/01/21 03:44:44;;;;;;;5.97;2.63;;;;;;;;;;5034366;28;20552;-64
2022/01/21 03:47:11;;;;;;;8.55;2.45;;;;;;;;;;5033909;28;20311;-65
2022/01/21 03:49:49;;;;;;;15.75;3.85;;;;;;;;;;5034282;28;20232;-64
2022/01/21 03:52:16;;;;;;;11.40;3.40;;;;;;;;;;5033964;28;20219;-65
2022/01/21 03:54:43;;;;;;;9.55;2.72;;;;;;;;;;5034240;28;20561;-65
2022/01/21 03:57:10;;;;;;;10.75;2.90;;;;;;;;;;5034185;28;20690;-65
2022/01/21 03:59:37;;;;;;;4.45;2.60;;;;;;;;;;5034125;28;20282;-65
2022/01/21 04:02:05;;;;;;;11.32;3.00;;;;;;;;;;5033743;28;20363;-65
2022/01/21 04:04:33;;;;;;;18.38;6.80;;;;;;;;;;5034002;28;20654;-65
2022/01/21 04:07:03;;;;;;;9.45;3.00;;;;;;;;;;5034206;28;20240;-65
2022/01/21 04:09:31;;;;;;;9.50;2.92;;;;;;;;;;5034585;28;20239;-65
2022/01/21 04:11:58;;;;;;;8.80;2.83;;;;;;;;;;5033985;28;20280;-65
2022/01/21 04:14:25;;;;;;;9.85;3.35;;;;;;;;;;5033898;28;20232;-65
2022/01/21 04:16:52;;;;;;;8.05;3.05;;;;;;;;;;5033423;28;20249;-65
2022/01/21 04:19:20;;;;;;;9.43;2.83;;;;;;;;;;5033879;28;20282;-65
2022/01/21 04:21:47;;;;;;;10.90;2.38;;;;;;;;;;5033780;28;20231;-65
2022/01/21 04:24:16;;;;;;;6.03;2.40;;;;;;;;;;5033432;28;20598;-65
2022/01/21 04:26:43;;;;;;;6.85;2.00;;;;;;;;;;5033748;28;20238;-65
2022/01/21 04:29:10;;;;;;;7.40;3.13;;;;;;;;;;5034053;28;20232;-65
2022/01/21 04:31:37;;;;;;;6.65;2.10;;;;;;;;;;5033035;28;20236;-65
2022/01/21 04:34:05;;;;;;;10.45;2.78;;;;;;;;;;5033626;28;20204;-65
2022/01/21 04:36:32;;;;;;;5.30;2.35;;;;;;;;;;5033092;28;20295;-65
2022/01/21 04:39:00;;;;;;;7.30;2.17;;;;;;;;;;5033541;28;20228;-65
2022/01/21 04:47:11;;;;;;;8.88;2.80;;;;;;;;;;5033104;28;20196;-65
2022/01/21 04:47:18;;;;;;;5.60;2.00;;;;;;;;;;5033225;28;20208;-65
2022/01/21 04:49:45;;;;;;;6.30;2.25;;;;;;;;;;5033238;28;20633;-65
2022/01/21 04:52:13;;;;;;;4.30;1.50;;;;;;;;;;5033884;28;20196;-65
2022/01/21 04:54:40;;;;;;;7.75;2.33;;;;;;;;;;5034081;28;20200;-65
2022/01/21 04:57:09;;;;;;;5.63;2.45;;;;;;;;;;5033381;28;20733;-65
2022/01/21 04:59:37;;;;;;;14.82;3.50;;;;;;;;;;5033077;28;20262;-65
2022/01/21 05:02:05;;;;;;;7.43;2.65;;;;;;;;;;5033679;28;20346;-65
2022/01/21 05:04:32;;;;;;;16.30;4.57;;;;;;;;;;5033471;28;20208;-65
2022/01/21 05:07:02;;;;;;;10.82;2.67;;;;;;;;;;5033442;28;20275;-65
2022/01/21 05:09:32;;;;;;;5.18;2.40;;;;;;;;;;5032950;28;20196;-66
2022/01/21 05:12:00;;;;;;;14.80;2.78;;;;;;;;;;5033452;28;20188;-65
2022/01/21 05:14:43;;;;;;;7.82;2.05;;;;;;;;;;5033201;28;20231;-65
2022/01/21 05:17:12;;;;;;;5.20;1.83;;;;;;;;;;5032981;28;20196;-65
2022/01/21 05:19:39;;;;;;;5.00;2.10;;;;;;;;;;5032878;28;20202;-64
2022/01/21 05:22:07;;;;;;;4.07;2.60;;;;;;;;;;5032514;28;20294;-64
2022/01/21 05:24:34;;;;;;;9.45;2.35;;;;;;;;;;5032849;28;20238;-64
2022/01/21 05:27:01;;;;;;;8.98;3.15;;;;;;;;;;5033062;28;20321;-64
2022/01/21 05:29:31;;;;;;;5.70;2.08;;;;;;;;;;5033101;28;20231;-64
2022/01/21 05:31:58;;;;;;;7.57;2.58;;;;;;;;;;5033036;28;20270;-64
2022/01/21 05:34:25;;;;;;;12.77;2.60;;;;;;;;;;5033005;28;20197;-64
2022/01/21 05:36:53;;;;;;;13.25;3.30;;;;;;;;;;5032992;28;20295;-64
2022/01/21 05:39:20;;;;;;;5.80;2.35;;;;;;;;;;5033298;28;20280;-64
2022/01/21 05:41:50;;;;;;;11.18;2.58;;;;;;;;;;5032981;28;20620;-64
2022/01/21 05:46:22;;;;;;;6.15;2.85;;;;;;;;;;5035679;28;20199;-64
2022/01/21 05:47:06;;;;;;;9.93;2.65;;;;;;;;;;5036242;28;20224;-64
2022/01/21 05:49:35;;;;;;;11.35;2.15;;;;;;;;;;5036963;28;20198;-65
2022/01/21 05:52:04;;;;;;;6.90;2.45;;;;;;;;;;5036441;28;20206;-64
2022/01/21 05:54:32;;;;;;;8.20;2.83;;;;;;;;;;5036364;28;20211;-64
2022/01/21 05:57:01;;;;;;;8.70;2.20;;;;;;;;;;5036476;28;20270;-64
2022/01/21 05:59:28;;;;;;;5.85;2.28;;;;;;;;;;5036251;28;20205;-64
2022/01/21 06:01:55;;;;;;;8.60;2.20;;;;;;;;;;5036492;28;20196;-65
2022/01/21 06:04:24;;;;;;;6.35;2.45;;;;;;;;;;5036469;28;20299;-63
2022/01/21 06:06:51;;;;;;;6.45;2.70;;;;;;;;;;5036256;28;20697;-65
2022/01/21 06:09:18;;;;;;;8.57;1.95;;;;;;;;;;5036484;28;20211;-64
2022/01/21 06:11:47;;;;;;;16.30;4.00;;;;;;;;;;5036493;28;20606;-65
2022/01/21 06:14:14;;;;;;;6.85;2.35;;;;;;;;;;5036346;28;20602;-64
2022/01/21 06:16:41;;;;;;;6.55;2.25;;;;;;;;;;5036803;28;20274;-64
2022/01/21 06:19:09;;;;;;;4.32;2.30;;;;;;;;;;5035833;28;20291;-64
2022/01/21 06:21:37;;;;;;;6.32;1.92;;;;;;;;;;5035323;28;20231;-65
2022/01/21 06:24:05;;;;;;;12.80;3.30;;;;;;;;;;5035038;28;20282;-64
2022/01/21 06:26:32;;;;;;;8.27;1.85;;;;;;;;;;5035499;28;20288;-65
2022/01/21 06:28:59;;;;;;;6.63;2.38;;;;;;;;;;5035595;28;20366;-64
2022/01/21 06:31:26;;;;;;;11.25;3.35;;;;;;;;;;5035979;28;20283;-63
2022/01/21 06:33:54;;;;;;;5.60;2.28;;;;;;;;;;5035586;28;20247;-64
2022/01/21 06:36:21;;;;;;;2.88;1.70;;;;;;;;;;5035831;28;20267;-63
2022/01/21 06:38:50;;;;;;;6.07;2.22;;;;;;;;;;5035537;28;20234;-63
2022/01/21 06:41:22;;;;;;;5.32;2.20;;;;;;;;;;5035483;28;20283;-64
2022/01/21 06:43:50;;;;;;;13.98;2.75;;;;;;;;;;5036060;28;20288;-64
2022/01/21 06:46:17;;;;;;;6.25;2.53;;;;;;;;;;5035453;28;20199;-63
2022/01/21 06:48:44;;;;;;;3.40;1.98;;;;;;;;;;5035649;28;20232;-64
2022/01/21 06:51:12;;;;;;;12.00;2.20;;;;;;;;;;5035299;28;20286;-64
2022/01/21 06:53:39;;;;;;;4.22;2.40;;;;;;;;;;5035421;28;20262;-64
2022/01/21 06:56:07;;;;;;;12.73;3.70;;;;;;;;;;5035272;28;20287;-64
2022/01/21 06:58:35;;;;;;;7.47;2.63;;;;;;;;;;5035505;28;20358;-64
2022/01/21 07:01:02;;;;;;;13.15;2.92;;;;;;;;;;5035233;28;20259;-64
2022/01/21 07:03:29;;;;;;;6.00;2.38;;;;;;;;;;5035872;28;20593;-64
2022/01/21 07:05:56;;;;;;;3.42;2.50;;;;;;;;;;5035081;28;20283;-64
2022/01/21 07:08:24;;;;;;;5.47;2.83;;;;;;;;;;5034741;28;20267;-63
2022/01/21 07:10:51;;;;;;;8.63;2.67;;;;;;;;;;5034848;28;20283;-64
2022/01/21 07:13:19;;;;;;;12.77;4.03;;;;;;;;;;5034873;28;20282;-63
2022/01/21 07:15:47;;;;;;;3.50;2.20;;;;;;;;;;5034869;28;20238;-63
2022/01/21 07:18:14;;;;;;;9.02;2.70;;;;;;;;;;5034668;28;20200;-64
2022/01/21 07:20:42;;;;;;;5.93;2.40;;;;;;;;;;5034643;28;20243;-63
2022/01/21 07:23:09;;;;;;;3.72;2.53;;;;;;;;;;5035050;28;20606;-64
2022/01/21 07:25:37;;;;;;;13.15;2.70;;;;;;;;;;5034834;28;20201;-64
2022/01/21 07:28:05;;;;;;;5.28;1.95;;;;;;;;;;5034675;28;20653;-64
2022/01/21 07:30:33;;;;;;;7.30;2.33;;;;;;;;;;5034809;28;20534;-63
2022/01/21 07:33:01;;;;;;;6.78;2.05;;;;;;;;;;5034929;28;20196;-63
2022/01/21 07:35:28;;;;;;;10.95;2.65;;;;;;;;;;5034644;28;20303;-63
2022/01/21 07:37:55;;;;;;;13.13;3.10;;;;;;;;;;5034909;28;20199;-64
2022/01/21 07:40:22;;;;;;;10.43;3.47;;;;;;;;;;5034465;28;20298;-64
2022/01/21 07:42:50;;;;;;;6.68;2.33;;;;;;;;;;5035367;28;20280;-63
2022/01/21 07:45:17;;;;;;;4.68;2.53;;;;;;;;;;5034613;28;20245;-64
2022/01/21 07:47:46;;;;;;;9.75;4.00;;;;;;;;;;5034113;28;20264;-64
2022/01/21 07:50:13;;;;;;;31.10;7.50;;;;;;;;;;5034580;28;20290;-63
2022/01/21 07:52:40;;;;;;;12.20;2.72;;;;;;;;;;5034182;28;20203;-64
2022/01/21 07:55:08;;;;;;;7.22;2.70;;;;;;;;;;5034160;28;20192;-65
2022/01/21 07:57:35;;;;;;;8.38;2.53;;;;;;;;;;5034489;28;20196;-64
2022/01/21 08:00:02;;;;;;;9.02;2.42;;;;;;;;;;5033971;28;20199;-64
2022/01/21 08:02:31;;;;;;;2.70;2.45;;;;;;;;;;5034071;28;20718;-64
2022/01/21 08:05:01;;;;;;;3.55;2.10;;;;;;;;;;5033915;28;20227;-63
2022/01/21 08:07:29;;;;;;;5.38;2.63;;;;;;;;;;5033478;28;20232;-63
2022/01/21 08:09:56;;;;;;;3.50;2.47;;;;;;;;;;5034203;28;20235;-64
2022/01/21 08:12:23;;;;;;;7.00;2.47;;;;;;;;;;5034904;28;20258;-64
2022/01/21 08:14:50;;;;;;;28.45;5.22;;;;;;;;;;5034158;28;20207;-64
2022/01/21 08:17:18;;;;;;;5.40;2.45;;;;;;;;;;5034060;28;20622;-64
2022/01/21 08:19:45;;;;;;;5.68;2.63;;;;;;;;;;5033754;28;20294;-64
2022/01/21 08:22:14;;;;;;;10.38;2.75;;;;;;;;;;5033642;28;20201;-64
2022/01/21 08:24:41;;;;;;;8.38;2.92;;;;;;;;;;5034256;28;20235;-64
2022/01/21 08:27:08;;;;;;;2.25;1.90;;;;;;;;;;5033590;28;20238;-64
2022/01/21 08:29:35;;;;;;;5.35;2.30;;;;;;;;;;5033500;28;20313;-64
2022/01/21 08:32:03;;;;;;;6.47;2.67;;;;;;;;;;5034400;28;20520;-64
2022/01/21 08:34:34;;;;;;;7.60;2.97;;;;;;;;;;5034612;28;20227;-63
2022/01/21 08:37:01;;;;;;;5.97;2.92;;;;;;;;;;5033546;28;20246;-63
2022/01/21 08:39:30;;;;;;;12.50;2.47;;;;;;;;;;5033930;28;20208;-64
2022/01/21 08:41:58;;;;;;;12.07;2.25;;;;;;;;;;5033736;28;20607;-64
2022/01/21 08:44:25;;;;;;;3.72;1.98;;;;;;;;;;5033770;28;20195;-64
2022/01/21 08:46:52;;;;;;;10.02;2.05;;;;;;;;;;5033650;28;20563;-63
2022/01/21 08:49:21;;;;;;;3.92;1.70;;;;;;;;;;5033562;28;20325;-63
2022/01/21 08:51:51;;;;;;;5.63;2.67;;;;;;;;;;5033577;28;20227;-65
2022/01/21 08:54:18;;;;;;;12.57;2.28;;;;;;;;;;5033894;28;20268;-65
2022/01/21 08:56:48;;;;;;;6.55;2.58;;;;;;;;;;5034111;28;20529;-63
2022/01/21 08:59:16;;;;;;;7.40;2.53;;;;;;;;;;5033128;28;20260;-64
2022/01/21 09:01:44;;;;;;;17.42;2.45;;;;;;;;;;5033431;28;20195;-64
2022/01/21 09:04:11;;;;;;;7.38;2.00;;;;;;;;;;5033182;28;20234;-64
2022/01/21 09:06:38;;;;;;;9.38;3.58;;;;;;;;;;5033203;28;20749;-63
2022/01/21 09:09:06;;;;;;;5.53;3.00;;;;;;;;;;5033403;28;20294;-64
2022/01/21 09:11:33;;;;;;;6.60;2.30;;;;;;;;;;5033334;28;20200;-63
2022/01/21 09:14:03;;;;;;;5.75;2.47;;;;;;;;;;5033049;28;20239;-64
2022/01/21 09:16:30;;;;;;;11.85;2.58;;;;;;;;;;5033233;28;20223;-63
2022/01/21 09:18:59;;;;;;;4.72;2.20;;;;;;;;;;5038093;28;20206;-63
2022/01/21 09:21:27;;;;;;;9.85;2.88;;;;;;;;;;5036627;28;20295;-63
2022/01/21 09:23:55;;;;;;;7.03;2.28;;;;;;;;;;5037919;28;20631;-63
2022/01/21 09:26:24;;;;;;;5.32;2.42;;;;;;;;;;5036874;28;20236;-63
2022/01/21 09:28:52;;;;;;;3.38;2.20;;;;;;;;;;5037023;28;20283;-64
2022/01/21 09:31:21;;;;;;;7.60;2.47;;;;;;;;;;5036972;28;20664;-64
2022/01/21 09:33:49;;;;;;;10.43;3.05;;;;;;;;;;5037196;28;20291;-64
2022/01/21 09:36:18;;;;;;;14.23;4.50;;;;;;;;;;5037651;28;20194;-64
2022/01/21 09:38:45;;;;;;;5.72;2.10;;;;;;;;;;5036660;28;20252;-64
2022/01/21 09:41:12;;;;;;;4.50;1.70;;;;;;;;;;5036721;28;20255;-64
2022/01/21 09:43:40;;;;;;;5.57;2.15;;;;;;;;;;5037048;28;20349;-63
2022/01/21 09:46:08;;;;;;;16.10;3.15;;;;;;;;;;5036662;28;20223;-64
2022/01/21 09:48:50;;;;;;;4.53;1.85;;;;;;;;;;5037031;28;20754;-63
2022/01/21 09:51:18;;;;;;;4.70;2.40;;;;;;;;;;5036590;28;20189;-63
2022/01/21 09:53:45;;;;;;;6.63;2.45;;;;;;;;;;5036454;28;20299;-63
2022/01/21 09:56:14;;;;;;;11.50;3.50;;;;;;;;;;5036415;28;20726;-63
2022/01/21 09:58:41;;;;;;;7.03;2.63;;;;;;;;;;5036697;28;20288;-63
2022/01/21 10:01:09;;;;;;;9.02;3.35;;;;;;;;;;5036761;28;20616;-63
2022/01/21 10:03:38;;;;;;;6.40;2.30;;;;;;;;;;5036952;28;20250;-63
2022/01/21 10:06:06;;;;;;;3.05;1.65;;;;;;;;;;5037332;28;20282;-63
2022/01/21 10:08:33;;;;;;;5.22;2.13;;;;;;;;;;5036431;28;20236;-64
2022/01/21 10:11:01;;;;;;;6.72;2.03;;;;;;;;;;5036192;28;20251;-64
2022/01/21 10:13:30;;;;;;;6.32;2.97;;;;;;;;;;5036095;28;20201;-64
2022/01/21 10:15:57;;;;;;;6.63;2.42;;;;;;;;;;5036152;28;20553;-64
2022/01/21 10:18:25;;;;;;;7.15;2.38;;;;;;;;;;5036138;28;20392;-64
2022/01/21 10:21:02;;;;;;;4.07;2.35;;;;;;;;;;5035950;28;20222;-64
2022/01/21 10:23:31;;;;;;;9.40;2.85;;;;;;;;;;5035968;28;20231;-64
2022/01/21 10:26:00;;;;;;;7.82;3.45;;;;;;;;;;5036227;28;20294;-64
2022/01/21 10:28:29;;;;;;;7.63;2.20;;;;;;;;;;5035511;28;20313;-64
2022/01/21 10:31:05;;;;;;;11.93;2.67;;;;;;;;;;5036421;28;20283;-64
2022/01/21 10:33:33;;;;;;;4.53;2.50;;;;;;;;;;5035850;28;20270;-64
2022/01/21 10:36:15;;;;;;;4.18;1.88;;;;;;;;;;5035959;28;20246;-63
2022/01/21 10:38:43;;;;;;;9.65;2.35;;;;;;;;;;5036367;28;20566;-64
2022/01/21 10:41:11;;;;;;;8.80;2.13;;;;;;;;;;5035924;28;20223;-63
2022/01/21 10:43:39;;;;;;;6.70;2.28;;;;;;;;;;5036066;28;20230;-64
2022/01/21 10:46:06;;;;;;;11.93;3.17;;;;;;;;;;5035528;28;20283;-65
2022/01/21 10:48:54;;;;;;;8.63;3.15;;;;;;;;;;5036069;28;20585;-64
2022/01/21 10:51:25;;;;;;;6.75;2.50;;;;;;;;;;5035444;28;20203;-63
2022/01/21 10:53:53;;;;;;;10.90;3.55;;;;;;;;;;5035522;28;20185;-64
2022/01/21 10:56:20;;;;;;;6.03;2.35;;;;;;;;;;5038142;28;20290;-64
2022/01/21 10:58:54;;;;;;;11.23;2.55;;;;;;;;;;5036547;28;20248;-63
2022/01/21 11:01:25;;;;;;;8.90;2.50;;;;;;;;;;5036042;28;20553;-63
2022/01/21 11:04:03;;;;;;;10.68;2.53;;;;;;;;;;5036044;28;20234;-63
2022/01/21 11:06:44;;;;;;;6.65;2.78;;;;;;;;;;5035324;28;20198;-63
2022/01/21 11:09:15;;;;;;;4.22;2.80;;;;;;;;;;5035533;28;20559;-63
2022/01/21 11:11:43;;;;;;;7.53;2.20;;;;;;;;;;5035128;28;20653;-64
2022/01/21 11:14:11;;;;;;;5.85;3.05;;;;;;;;;;5035662;28;20197;-63
2022/01/21 11:16:40;;;;;;;10.95;2.80;;;;;;;;;;5035518;28;20211;-63
2022/01/21 11:19:11;;;;;;;6.00;2.03;;;;;;;;;;5035408;28;20708;-63
2022/01/21 11:21:56;;;;;;;8.43;2.80;;;;;;;;;;5034973;28;20634;-63
2022/01/21 11:24:26;;;;;;;6.40;2.50;;;;;;;;;;5035257;28;20260;-63
2022/01/21 11:27:07;;;;;;;10.07;3.03;;;;;;;;;;5034850;28;20227;-63
2022/01/21 11:29:34;;;;;;;10.43;3.10;;;;;;;;;;5034534;28;20218;-63
2022/01/21 11:32:03;;;;;;;10.15;2.20;;;;;;;;;;5034605;28;20288;-63
2022/01/21 11:34:30;;;;;;;7.43;2.25;;;;;;;;;;5034518;28;20655;-64
2022/01/21 11:36:58;;;;;;;10.57;2.50;;;;;;;;;;5034581;28;20293;-63
2022/01/21 11:39:26;;;;;;;11.63;2.95;;;;;;;;;;5035148;28;20288;-64
2022/01/21 11:41:56;;;;;;;5.15;2.60;;;;;;;;;;5033466;28;20288;-63
2022/01/21 11:44:25;;;;;;;4.45;2.40;;;;;;;;;;5034424;28;20199;-64
2022/01/21 11:47:14;;;;;;;4.75;2.25;;;;;;;;;;5034791;28;20204;-64
2022/01/21 11:49:42;;;;;;;16.90;3.05;;;;;;;;;;5034318;28;20290;-64
2022/01/21 11:52:15;;;;;;;8.65;2.60;;;;;;;;;;5034655;28;20229;-63
2022/01/21 11:54:44;;;;;;;6.65;3.33;;;;;;;;;;5034247;28;20234;-63
2022/01/21 11:57:12;;;;;;;8.73;3.22;;;;;;;;;;5034227;28;20649;-64
2022/01/21 11:59:46;;;;;;;5.47;2.75;;;;;;;;;;5034681;28;20201;-63
2022/01/21 12:02:21;;;;;;;3.85;2.28;;;;;;;;;;5034124;28;20188;-64
2022/01/21 12:04:49;;;;;;;9.07;2.28;;;;;;;;;;5034270;28;20205;-64
2022/01/21 12:07:45;;;;;;;12.48;2.55;;;;;;;;;;5034057;28;20720;-63
2022/01/21 12:10:14;;;;;;;10.48;2.65;;;;;;;;;;5033893;28;20215;-64
2022/01/21 12:13:07;;;;;;;3.75;1.92;;;;;;;;;;5033851;28;20201;-64
2022/01/21 12:15:55;;;;;;;10.70;2.78;;;;;;;;;;5020130;28;20207;-63
2022/01/21 12:18:37;;;;;;;12.18;3.22;;;;;;;;;;5033867;28;20273;-64
2022/01/21 12:21:06;;;;;;;6.78;2.97;;;;;;;;;;5033753;28;20190;-63
2022/01/21 12:23:44;;;;;;;14.10;2.88;;;;;;;;;;5033996;28;20586;-63
2022/01/21 12:26:18;;;;;;;7.95;2.75;;;;;;;;;;5033744;28;20185;-63
2022/01/21 12:28:50;;;;;;;10.05;2.92;;;;;;;;;;5033580;28;20724;-64
2022/01/21 12:31:21;;;;;;;12.23;2.95;;;;;;;;;;5033664;28;20272;-63
2022/01/21 12:34:06;;;;;;;7.78;2.58;;;;;;;;;;5033616;28;20189;-63
2022/01/21 12:36:35;;;;;;;7.85;3.05;;;;;;;;;;5033245;28;20545;-63
2022/01/21 12:39:12;;;;;;;5.97;2.70;;;;;;;;;;5033339;28;20200;-69
2022/01/21 12:41:47;;;;;;;12.50;2.67;;;;;;;;;;5033996;28;20194;-65
2022/01/21 12:44:30;;;;;;;9.82;2.22;;;;;;;;;;5034277;28;20529;-65
2022/01/21 12:46:57;;;;;;;3.65;2.22;;;;;;;;;;5034450;28;20187;-65
2022/01/21 12:49:43;;;;;;;6.75;2.85;;;;;;;;;;5033319;28;20227;-65
2022/01/21 12:52:14;;;;;;;8.70;2.65;;;;;;;;;;5033087;28;20223;-65
2022/01/21 12:57:29;;;;;;;7.20;2.42;;;;;;;;;;5033412;28;20552;-65
2022/01/21 12:59:57;;;;;;;9.32;2.90;;;;;;;;;;5033250;28;20339;-65
2022/01/21 13:02:25;;;;;;;11.75;3.05;;;;;;;;;;5033232;28;20288;-65
2022/01/21 13:04:56;;;;;;;6.03;2.30;;;;;;;;;;5033210;28;20262;-64
2022/01/21 13:07:28;;;;;;;7.60;1.92;;;;;;;;;;5016362;28;20268;-64
2022/01/21 13:10:16;;;;;;;7.00;1.80;;;;;;;;;;5013438;28;20745;-65
2022/01/21 13:13:14;;;;;;;1.75;1.45;;;;;;;;;;5008813;28;20198;-67
2022/01/21 13:15:42;;;;;;;5.63;1.88;;;;;;;;;;5013755;28;20623;-66
2022/01/21 13:18:11;;;;;;;6.60;2.78;;;;;;;;;;5013737;28;20285;-66
2022/01/21 13:20:39;;;;;;;8.07;2.55;;;;;;;;;;5013495;28;20226;-66
2022/01/21 13:23:06;;;;;;;13.73;3.00;;;;;;;;;;5013705;28;20243;-65
2022/01/21 13:25:35;;;;;;;8.45;2.42;;;;;;;;;;5013272;28;20233;-65
2022/01/21 13:28:04;;;;;;;13.90;2.58;;;;;;;;;;5014060;28;20202;-65
2022/01/21 13:30:46;;;;;;;10.80;3.63;;;;;;;;;;5013057;28;20304;-65
2022/01/21 13:33:20;;;;;;;10.48;2.75;;;;;;;;;;5014892;28;20254;-65
2022/01/21 13:35:47;;;;;;;8.82;3.03;;;;;;;;;;5014312;28;20208;-66
2022/01/21 13:38:21;;;;;;;8.43;2.92;;;;;;;;;;5014980;28;20219;-65
2022/01/21 13:40:49;;;;;;;9.02;3.00;;;;;;;;;;5013621;28;20198;-65
2022/01/21 13:43:19;;;;;;;12.57;3.53;;;;;;;;;;5013383;28;20259;-65
2022/01/21 13:45:55;;;;;;;7.22;3.15;;;;;;;;;;5013042;28;20211;-65
2022/01/21 13:48:24;;;;;;;11.30;3.35;;;;;;;;;;5013750;28;20215;-65
2022/01/21 13:50:51;;;;;;;7.07;3.70;;;;;;;;;;5013109;28;20589;-65
2022/01/21 13:53:19;;;;;;;7.32;3.28;;;;;;;;;;5013306;28;20229;-65
2022/01/21 13:55:47;;;;;;;7.47;2.90;;;;;;;;;;5013193;28;20283;-65
2022/01/21 13:58:16;;;;;;;6.93;3.15;;;;;;;;;;5013301;28;20198;-64
2022/01/21 14:00:46;;;;;;;10.38;2.92;;;;;;;;;;5013362;28;20633;-64
2022/01/21 14:03:15;;;;;;;15.57;3.97;;;;;;;;;;5013802;28;20186;-64
2022/01/21 14:05:50;;;;;;;9.85;4.43;;;;;;;;;;5016332;28;20719;-64
2022/01/21 14:08:19;;;;;;;12.55;4.00;;;;;;;;;;5017022;28;20237;-64
2022/01/21 14:10:46;;;;;;;6.53;3.55;;;;;;;;;;5016369;28;20225;-64
2022/01/21 14:13:14;;;;;;;5.78;3.67;;;;;;;;;;5016724;28;20193;-64
2022/01/21 14:15:41;;;;;;;8.63;3.75;;;;;;;;;;5017247;28;20624;-65
2022/01/21 14:18:10;;;;;;;6.10;4.00;;;;;;;;;;5016910;28;20289;-64
2022/01/21 14:20:39;;;;;;;5.40;3.58;;;;;;;;;;5016411;28;20726;-64
2022/01/21 14:23:07;;;;;;;7.60;4.35;;;;;;;;;;5016218;28;20198;-64
2022/01/21 14:25:34;;;;;;;10.75;5.90;;;;;;;;;;5016837;28;20718;-64
2022/01/21 14:28:02;;;;;;;12.93;4.40;;;;;;;;;;5016798;28;20629;-64
2022/01/21 14:30:29;;;;;;;12.27;5.50;;;;;;;;;;5016063;28;20253;-65
2022/01/21 14:33:00;;;;;;;7.72;5.05;;;;;;;;;;5016108;28;20743;-65
2022/01/21 14:35:35;;;;;;;19.20;6.40;;;;;;;;;;5016130;28;20193;-64
2022/01/21 14:38:04;;;;;;;18.40;6.97;;;;;;;;;;5016532;28;20243;-64
2022/01/21 14:40:32;;;;;;;18.70;5.93;;;;;;;;;;5016179;28;20336;-65
2022/01/21 14:43:05;;;;;;;13.10;6.57;;;;;;;;;;5015834;28;20204;-64
2022/01/21 14:45:42;;;;;;;17.05;8.32;;;;;;;;;;5015826;28;20233;-64
2022/01/21 14:48:13;;;;;;;17.58;7.93;;;;;;;;;;5016315;28;20185;-65
2022/01/21 14:50:42;;;;;;;21.25;10.57;;;;;;;;;;5015815;28;20217;-64
2022/01/21 14:53:10;;;;;;;21.52;8.18;;;;;;;;;;5015698;28;20652;-64
2022/01/21 14:55:38;;;;;;;14.52;5.90;;;;;;;;;;5015877;28;20244;-64
2022/01/21 14:58:10;;;;;;;12.48;5.90;;;;;;;;;;5015485;28;20218;-64
2022/01/21 15:00:45;;;;;;;18.73;7.40;;;;;;;;;;5015582;28;20222;-64
2022/01/21 15:03:26;;;;;;;12.77;6.55;;;;;;;;;;5015787;28;20232;-63
2022/01/21 15:05:57;;;;;;;11.75;6.72;;;;;;;;;;5015885;28;20193;-64
2022/01/21 15:08:33;;;;;;;13.43;7.63;;;;;;;;;;5016078;28;20619;-64
2022/01/21 15:11:41;;;;;;;12.43;7.55;;;;;;;;;;5016165;28;20209;-63
2022/01/21 15:14:26;;;;;;;18.95;8.98;;;;;;;;;;5015723;28;20196;-63
2022/01/21 15:16:55;;;;;;;21.02;8.02;;;;;;;;;;5016086;28;20513;-63
2022/01/21 15:19:29;;;;;;;13.25;9.32;;;;;;;;;;5015460;28;20200;-63
2022/01/21 15:21:59;;;;;;;16.20;9.07;;;;;;;;;;5015346;28;20196;-64
2022/01/21 15:24:26;;;;;;;13.82;8.85;;;;;;;;;;5015424;28;20261;-63
2022/01/21 15:26:54;;;;;;;16.02;8.35;;;;;;;;;;5016182;28;20583;-63
2022/01/21 15:29:21;;;;;;;27.63;9.98;;;;;;;;;;5015309;28;20241;-63
2022/01/21 15:31:48;;;;;;;14.60;9.07;;;;;;;;;;5014807;28;20241;-63
2022/01/21 15:34:16;;;;;;;15.90;8.90;;;;;;;;;;5015264;28;20207;-63
2022/01/21 15:36:44;;;;;;;13.32;7.45;;;;;;;;;;5015084;28;20210;-63